Time;durP1;ratioP1;P1;durP2;ratioP2;P2;SDS_P1;SDS_P2;PMS_P1;PMS_P2;Temp;Humidity;BMP_temperature;BMP_pressure;BME280_temperature;BME280_humidity;BME280_pressure;Samples;Min_cycle;Max_cycle;Signal;HPM_P1;HPM_P2
2022/05/19 00:00:33;;;;;;;4.30;3.90;;;20.00;93.60;;;;;;5073092;28;20516;-56
2022/05/19 00:03:00;;;;;;;3.90;3.57;;;19.90;93.60;;;;;;5074188;28;20977;-56
2022/05/19 00:05:27;;;;;;;5.73;4.13;;;19.80;93.80;;;;;;5073469;28;20444;-57
2022/05/19 00:07:54;;;;;;;3.63;3.33;;;19.80;94.10;;;;;;5073347;28;20444;-56
2022/05/19 00:10:22;;;;;;;4.70;3.87;;;19.70;94.60;;;;;;5072973;28;20484;-56
2022/05/19 00:12:49;;;;;;;7.00;3.73;;;19.80;94.70;;;;;;5073520;28;20615;-57
2022/05/19 00:15:17;;;;;;;4.17;3.77;;;19.80;94.90;;;;;;5073561;28;20459;-57
2022/05/19 00:17:45;;;;;;;5.27;3.47;;;19.70;95.00;;;;;;5073545;28;20448;-57
2022/05/19 00:20:12;;;;;;;4.60;4.20;;;19.60;95.30;;;;;;5073328;28;20559;-56
2022/05/19 00:22:39;;;;;;;3.83;3.53;;;19.60;95.60;;;;;;5073224;28;20449;-56
2022/05/19 00:25:07;;;;;;;4.50;4.10;;;19.60;95.80;;;;;;5073290;28;20453;-56
2022/05/19 00:27:34;;;;;;;4.60;4.07;;;19.40;96.10;;;;;;5073148;28;20535;-56
2022/05/19 00:30:01;;;;;;;4.20;3.53;;;19.40;96.50;;;;;;5072774;28;21020;-57
2022/05/19 00:32:30;;;;;;;6.40;4.20;;;19.40;96.70;;;;;;5072991;28;20993;-57
2022/05/19 00:34:58;;;;;;;3.97;3.57;;;19.50;96.80;;;;;;5072813;28;20484;-57
2022/05/19 00:37:25;;;;;;;4.17;3.67;;;19.50;96.90;;;;;;5073117;28;20444;-57
2022/05/19 00:39:52;;;;;;;4.40;3.60;;;19.50;97.40;;;;;;5072691;28;20500;-57
2022/05/19 00:45:05;;;;;;;5.03;4.27;;;19.40;97.60;;;;;;5077044;28;20435;-57
2022/05/19 00:47:38;;;;;;;5.00;4.50;;;19.10;98.50;;;;;;5076315;28;20448;-57
2022/05/19 00:50:10;;;;;;;5.30;4.83;;;19.00;99.00;;;;;;5076448;28;20579;-57
2022/05/19 00:52:41;;;;;;;4.57;4.17;;;18.90;99.10;;;;;;5076565;28;20431;-57
2022/05/19 00:55:13;;;;;;;7.63;3.90;;;19.00;99.40;;;;;;5076996;28;20451;-56
2022/05/19 00:57:46;;;;;;;4.37;4.00;;;19.10;99.50;;;;;;5076198;28;20845;-56
2022/05/19 01:00:17;;;;;;;5.40;4.00;;;19.00;99.80;;;;;;5076262;28;20963;-56
2022/05/19 01:02:55;;;;;;;5.20;4.47;;;19.00;99.90;;;;;;5076431;28;20436;-55
2022/05/19 01:05:27;;;;;;;4.90;4.30;;;19.00;99.90;;;;;;5076326;28;20437;-56
2022/05/19 01:08:01;;;;;;;6.37;4.87;;;18.90;99.90;;;;;;5076258;28;20451;-56
2022/05/19 01:10:28;;;;;;;4.90;4.30;;;18.80;99.90;;;;;;5076164;28;20543;-56
2022/05/19 01:12:56;;;;;;;5.53;4.80;;;18.80;99.90;;;;;;5076188;28;20785;-57
2022/05/19 01:15:23;;;;;;;4.97;3.97;;;18.80;99.90;;;;;;5076287;28;20475;-56
2022/05/19 01:17:52;;;;;;;4.40;3.87;;;18.80;99.90;;;;;;5076430;28;20459;-56
2022/05/19 01:20:23;;;;;;;4.37;3.97;;;18.80;99.90;;;;;;5076034;28;20445;-55
2022/05/19 01:22:55;;;;;;;5.97;4.13;;;18.80;99.90;;;;;;5076187;28;20435;-55
2022/05/19 01:25:35;;;;;;;4.70;4.30;;;18.70;99.90;;;;;;5075660;28;20433;-56
2022/05/19 01:28:05;;;;;;;5.30;4.60;;;18.70;99.90;;;;;;5075537;28;20888;-56
2022/05/19 01:30:32;;;;;;;5.20;4.10;;;18.50;99.90;;;;;;5075717;28;20507;-56
2022/05/19 01:33:00;;;;;;;5.00;4.60;;;18.60;99.90;;;;;;5075749;28;20448;-56
2022/05/19 01:35:33;;;;;;;4.47;4.07;;;18.50;99.90;;;;;;5075396;28;20536;-56
2022/05/19 01:38:00;;;;;;;4.17;3.87;;;18.50;99.90;;;;;;5075809;28;20439;-57
2022/05/19 01:40:50;;;;;;;4.60;4.20;;;18.40;99.90;;;;;;5075360;28;20451;-56
2022/05/19 01:43:27;;;;;;;4.70;4.30;;;18.40;99.90;;;;;;5075300;28;20456;-56
2022/05/19 01:46:16;;;;;;;5.43;4.60;;;18.20;99.90;;;;;;5075236;28;20431;-56
2022/05/19 01:48:51;;;;;;;5.23;4.70;;;18.20;99.90;;;;;;5075648;28;20448;-56
2022/05/19 01:51:27;;;;;;;4.67;4.27;;;18.20;99.90;;;;;;5075345;28;20554;-56
2022/05/19 01:54:05;;;;;;;3.93;3.50;;;18.20;99.90;;;;;;5074257;28;20435;-56
2022/05/19 01:56:59;;;;;;;5.40;4.20;;;18.10;99.90;;;;;;5075007;28;20515;-56
2022/05/19 01:59:33;;;;;;;6.10;4.87;;;18.10;99.90;;;;;;5074607;28;20844;-56
2022/05/19 02:02:08;;;;;;;4.97;4.47;;;18.20;99.90;;;;;;5075839;28;20443;-56
2022/05/19 02:04:45;;;;;;;5.70;4.50;;;18.20;99.90;;;;;;5075115;28;21025;-56
2022/05/19 02:07:14;;;;;;;4.50;4.10;;;18.20;99.90;;;;;;5075308;28;20417;-56
2022/05/19 02:09:49;;;;;;;4.93;4.43;;;18.20;99.90;;;;;;5075122;28;20485;-56
2022/05/19 02:12:16;;;;;;;5.00;4.50;;;18.20;99.90;;;;;;5074727;28;20435;-56
2022/05/19 02:14:49;;;;;;;4.80;4.40;;;18.10;99.90;;;;;;5075119;28;20532;-56
2022/05/19 02:17:19;;;;;;;4.70;4.20;;;18.00;99.90;;;;;;5075231;28;20432;-56
2022/05/19 02:19:50;;;;;;;4.60;4.20;;;17.90;99.90;;;;;;5074760;28;20984;-56
2022/05/19 02:22:19;;;;;;;6.23;4.37;;;17.90;99.90;;;;;;5074489;28;20938;-56
2022/05/19 02:24:51;;;;;;;4.37;3.97;;;17.80;99.90;;;;;;5074977;28;20518;-56
2022/05/19 02:27:35;;;;;;;4.90;4.50;;;17.80;99.90;;;;;;5074705;28;20437;-56
2022/05/19 02:30:06;;;;;;;4.90;4.57;;;17.90;99.90;;;;;;5074769;28;20492;-56
2022/05/19 02:32:35;;;;;;;4.83;4.07;;;17.90;99.90;;;;;;5074293;28;20909;-56
2022/05/19 02:35:03;;;;;;;5.30;4.20;;;17.90;99.90;;;;;;5074677;28;20453;-56
2022/05/19 02:37:30;;;;;;;7.27;4.47;;;17.80;99.90;;;;;;5074552;28;20476;-56
2022/05/19 02:39:58;;;;;;;6.90;4.17;;;17.80;99.90;;;;;;5074384;28;20518;-56
2022/05/19 02:42:25;;;;;;;7.00;4.20;;;17.70;99.90;;;;;;5072876;28;20913;-56
2022/05/19 02:44:52;;;;;;;4.77;4.30;;;17.60;99.90;;;;;;5074721;28;20452;-56
2022/05/19 02:47:21;;;;;;;4.80;4.33;;;17.60;99.90;;;;;;5074481;28;20452;-57
2022/05/19 02:49:48;;;;;;;8.50;4.13;;;17.70;99.90;;;;;;5074184;28;20859;-56
2022/05/19 02:52:15;;;;;;;5.17;4.53;;;17.60;99.90;;;;;;5073931;28;20440;-57
2022/05/19 02:54:42;;;;;;;4.90;4.50;;;17.70;99.90;;;;;;5074202;28;20539;-56
2022/05/19 02:57:09;;;;;;;9.70;3.97;;;17.70;99.90;;;;;;5073866;28;20830;-56
2022/05/19 02:59:36;;;;;;;6.07;5.47;;;17.60;99.90;;;;;;5073752;28;20475;-56
2022/05/19 03:02:04;;;;;;;4.27;3.87;;;17.50;99.90;;;;;;5074131;28;20449;-55
2022/05/19 03:04:33;;;;;;;3.73;3.40;;;17.70;99.90;;;;;;5073738;28;20459;-56
2022/05/19 03:07:00;;;;;;;4.40;4.00;;;17.70;99.90;;;;;;5073463;28;20927;-56
2022/05/19 03:09:27;;;;;;;4.10;3.70;;;17.70;99.90;;;;;;5073911;28;20966;-56
2022/05/19 03:11:54;;;;;;;6.70;4.60;;;17.70;99.90;;;;;;5074199;28;20445;-56
2022/05/19 03:14:21;;;;;;;4.57;4.17;;;17.70;99.90;;;;;;5073946;28;20460;-56
2022/05/19 03:16:48;;;;;;;4.40;3.80;;;17.50;99.90;;;;;;5073680;28;20448;-56
2022/05/19 03:19:16;;;;;;;4.10;3.80;;;17.50;99.90;;;;;;5073958;28;20468;-56
2022/05/19 03:21:45;;;;;;;6.20;3.93;;;17.50;99.90;;;;;;5073864;28;20450;-56
2022/05/19 03:24:12;;;;;;;4.20;3.77;;;17.30;99.90;;;;;;5073582;28;20935;-56
2022/05/19 03:26:39;;;;;;;5.10;3.97;;;17.20;99.90;;;;;;5073491;28;20812;-56
2022/05/19 03:29:06;;;;;;;5.47;4.17;;;17.20;99.90;;;;;;5073867;28;20472;-56
2022/05/19 03:31:35;;;;;;;5.27;4.20;;;17.20;99.90;;;;;;5073364;28;20480;-56
2022/05/19 03:34:02;;;;;;;9.83;4.33;;;17.20;99.90;;;;;;5074187;28;20775;-56
2022/05/19 03:36:30;;;;;;;4.03;3.60;;;17.30;99.90;;;;;;5073681;28;20448;-56
2022/05/19 03:38:58;;;;;;;4.27;3.93;;;17.40;99.90;;;;;;5073279;28;20468;-56
2022/05/19 03:41:25;;;;;;;6.17;4.27;;;17.40;99.90;;;;;;5073517;28;20472;-56
2022/05/19 03:43:52;;;;;;;4.20;3.90;;;17.40;99.90;;;;;;5073778;28;20463;-56
2022/05/19 03:46:19;;;;;;;7.43;4.13;;;17.40;99.90;;;;;;5074129;28;20452;-56
2022/05/19 03:48:47;;;;;;;3.90;3.60;;;17.50;99.90;;;;;;5073619;28;20457;-56
2022/05/19 03:51:22;;;;;;;4.53;4.10;;;17.40;99.90;;;;;;5073156;28;20476;-56
2022/05/19 03:53:49;;;;;;;4.53;4.13;;;17.40;99.90;;;;;;5073288;28;20440;-56
2022/05/19 03:56:18;;;;;;;4.20;3.80;;;17.10;99.90;;;;;;5073181;28;20791;-56
2022/05/19 03:58:46;;;;;;;5.70;4.40;;;17.10;99.90;;;;;;5073101;28;20813;-56
2022/05/19 04:01:13;;;;;;;5.13;4.70;;;17.10;99.90;;;;;;5073242;28;20506;-56
2022/05/19 04:03:40;;;;;;;4.43;3.87;;;17.00;99.90;;;;;;5073150;28;20931;-56
2022/05/19 04:06:08;;;;;;;5.80;4.60;;;17.00;99.90;;;;;;5073123;28;20448;-56
2022/05/19 04:08:35;;;;;;;5.37;4.20;;;17.00;99.90;;;;;;5073464;28;20452;-56
2022/05/19 04:11:03;;;;;;;5.20;4.40;;;17.00;99.90;;;;;;5072969;28;20610;-56
2022/05/19 04:13:32;;;;;;;4.90;4.30;;;17.20;99.90;;;;;;5073059;28;20464;-56
2022/05/19 04:15:59;;;;;;;5.80;4.53;;;17.20;99.90;;;;;;5073148;28;20402;-56
2022/05/19 04:18:26;;;;;;;4.73;4.33;;;17.20;99.90;;;;;;5075725;28;20558;-55
2022/05/19 04:20:53;;;;;;;6.93;4.60;;;17.20;99.90;;;;;;5077070;28;20449;-55
2022/05/19 04:23:20;;;;;;;4.33;3.90;;;17.30;99.90;;;;;;5077516;28;20454;-55
2022/05/19 04:25:48;;;;;;;4.80;4.40;;;17.30;99.90;;;;;;5076614;28;20440;-55
2022/05/19 04:28:15;;;;;;;4.57;3.37;;;17.30;99.90;;;;;;5077033;28;20468;-55
2022/05/19 04:30:43;;;;;;;4.83;4.23;;;17.40;99.90;;;;;;5076449;28;20479;-55
2022/05/19 04:33:11;;;;;;;5.00;4.50;;;17.40;99.90;;;;;;5076564;28;20448;-56
2022/05/19 04:35:40;;;;;;;4.10;3.70;;;17.30;99.90;;;;;;5076559;28;20455;-56
2022/05/19 04:38:09;;;;;;;4.23;3.83;;;17.50;99.90;;;;;;5076758;28;20444;-55
2022/05/19 04:40:38;;;;;;;4.10;3.77;;;17.50;99.90;;;;;;5077175;28;20441;-55
2022/05/19 04:43:05;;;;;;;4.40;4.00;;;17.60;99.90;;;;;;5076457;28;20428;-56
2022/05/19 04:45:33;;;;;;;7.83;4.30;;;17.70;99.90;;;;;;5076859;28;20429;-55
2022/05/19 04:48:02;;;;;;;4.20;3.73;;;17.70;99.90;;;;;;5076554;28;20528;-55
2022/05/19 04:50:29;;;;;;;4.50;4.10;;;17.70;99.90;;;;;;5076057;28;20815;-56
2022/05/19 04:52:58;;;;;;;6.67;6.10;;;17.70;99.90;;;;;;5076164;28;20531;-56
2022/05/19 04:55:25;;;;;;;4.97;4.40;;;17.70;99.90;;;;;;5077125;28;20448;-55
2022/05/19 04:57:52;;;;;;;4.33;4.03;;;17.80;99.90;;;;;;5076062;28;20930;-55
2022/05/19 05:00:20;;;;;;;4.90;4.50;;;17.90;99.90;;;;;;5076266;28;20431;-55
2022/05/19 05:02:48;;;;;;;4.53;4.07;;;18.00;99.90;;;;;;5076009;28;20452;-55
2022/05/19 05:05:17;;;;;;;4.90;4.50;;;18.00;99.90;;;;;;5076251;28;20447;-55
2022/05/19 05:07:44;;;;;;;4.47;4.03;;;18.10;99.90;;;;;;5075888;28;20942;-55
2022/05/19 05:10:11;;;;;;;4.70;4.30;;;18.10;99.90;;;;;;5075746;28;20555;-55
2022/05/19 05:12:39;;;;;;;6.17;4.00;;;18.30;99.90;;;;;;5076034;28;20535;-55
2022/05/19 05:15:07;;;;;;;4.87;4.37;;;18.30;99.90;;;;;;5076253;28;20448;-55
2022/05/19 05:17:35;;;;;;;4.93;4.53;;;18.50;99.90;;;;;;5075719;28;20540;-56
2022/05/19 05:20:03;;;;;;;8.40;3.97;;;18.50;99.90;;;;;;5075827;28;20522;-56
2022/05/19 05:22:34;;;;;;;10.13;4.17;;;18.60;99.90;;;;;;5075732;28;20540;-56
2022/05/19 05:25:01;;;;;;;5.57;3.40;;;18.70;99.90;;;;;;5076320;28;20475;-56
2022/05/19 05:27:29;;;;;;;5.13;3.77;;;18.80;99.90;;;;;;5075391;28;20998;-56
2022/05/19 05:29:56;;;;;;;9.47;4.10;;;18.70;99.90;;;;;;5075262;28;20563;-56
2022/05/19 05:32:23;;;;;;;5.93;3.70;;;18.80;99.90;;;;;;5075259;28;20519;-56
2022/05/19 05:34:50;;;;;;;7.20;4.03;;;18.80;99.90;;;;;;5075207;28;20498;-56
2022/05/19 05:37:18;;;;;;;4.27;3.50;;;18.90;99.90;;;;;;5075926;28;20448;-56
2022/05/19 05:39:46;;;;;;;4.83;3.97;;;18.90;99.90;;;;;;5075124;28;20472;-58
2022/05/19 05:42:13;;;;;;;5.10;4.20;;;19.00;99.90;;;;;;5075082;28;20484;-56
2022/05/19 05:44:40;;;;;;;4.77;4.33;;;19.00;99.90;;;;;;5075485;28;20456;-56
2022/05/19 05:47:08;;;;;;;7.63;4.03;;;19.10;99.90;;;;;;5075272;28;20565;-56
2022/05/19 05:49:35;;;;;;;4.10;3.80;;;19.10;99.90;;;;;;5074618;28;20464;-56
2022/05/19 05:52:04;;;;;;;3.90;3.50;;;19.20;99.90;;;;;;5075132;28;20480;-56
2022/05/19 05:54:31;;;;;;;5.53;4.23;;;19.30;99.90;;;;;;5075125;28;20533;-56
2022/05/19 05:57:00;;;;;;;6.00;4.23;;;19.40;99.90;;;;;;5074724;28;20478;-56
2022/05/19 05:59:27;;;;;;;6.23;3.70;;;19.40;99.90;;;;;;5074996;28;20518;-56
2022/05/19 06:01:54;;;;;;;3.90;3.50;;;19.40;99.90;;;;;;5074781;28;20447;-56
2022/05/19 06:04:22;;;;;;;4.87;4.33;;;19.50;99.90;;;;;;5075124;28;20539;-56
2022/05/19 06:06:49;;;;;;;5.53;4.07;;;19.40;99.90;;;;;;5075000;28;20478;-56
2022/05/19 06:09:17;;;;;;;5.57;3.73;;;19.50;99.90;;;;;;5074857;28;20480;-56
2022/05/19 06:11:44;;;;;;;7.27;3.90;;;19.60;99.90;;;;;;5074884;28;20487;-56
2022/05/19 06:14:13;;;;;;;6.33;4.00;;;19.60;99.90;;;;;;5074848;28;20471;-56
2022/05/19 06:16:40;;;;;;;4.10;3.70;;;19.70;99.90;;;;;;5074656;28;20897;-56
2022/05/19 06:19:08;;;;;;;6.50;3.87;;;19.80;99.90;;;;;;5074370;28;20480;-56
2022/05/19 06:21:36;;;;;;;5.23;4.00;;;19.90;99.90;;;;;;5074382;28;20468;-56
2022/05/19 06:24:08;;;;;;;4.97;3.67;;;19.80;99.90;;;;;;5074191;28;20531;-56
2022/05/19 06:26:35;;;;;;;6.00;3.90;;;19.80;99.90;;;;;;5074052;28;20926;-56
2022/05/19 06:29:02;;;;;;;6.30;4.03;;;19.90;99.90;;;;;;5074115;28;20586;-56
2022/05/19 06:31:32;;;;;;;8.33;4.00;;;19.90;99.90;;;;;;5074197;28;20562;-55
2022/05/19 06:34:00;;;;;;;6.40;4.47;;;20.00;99.90;;;;;;5074056;28;20449;-56
2022/05/19 06:36:27;;;;;;;5.80;4.27;;;20.10;99.90;;;;;;5074061;28;20448;-56
2022/05/19 06:38:55;;;;;;;4.60;4.20;;;20.20;99.90;;;;;;5074161;28;20965;-56
2022/05/19 06:44:07;;;;;;;4.63;4.20;;;20.30;99.90;;;;;;5074465;28;20894;-55
2022/05/19 06:46:36;;;;;;;8.13;4.13;;;20.50;99.90;;;;;;5074176;28;20807;-56
2022/05/19 06:49:04;;;;;;;5.10;4.33;;;20.50;99.90;;;;;;5073889;28;20464;-55
2022/05/19 06:51:32;;;;;;;4.43;3.83;;;20.60;99.90;;;;;;5073779;28;20476;-56
2022/05/19 06:53:59;;;;;;;5.80;3.77;;;20.80;99.90;;;;;;5074830;28;20456;-56
2022/05/19 06:56:27;;;;;;;6.20;4.00;;;20.90;99.90;;;;;;5073474;28;21018;-55
2022/05/19 06:58:56;;;;;;;5.23;3.77;;;21.00;99.90;;;;;;5073522;28;20494;-55
2022/05/19 07:01:24;;;;;;;5.80;3.63;;;21.10;99.90;;;;;;5074073;28;20523;-56
2022/05/19 07:03:52;;;;;;;3.63;3.33;;;21.20;99.90;;;;;;5073878;28;20444;-56
2022/05/19 07:06:19;;;;;;;3.53;3.33;;;21.30;99.40;;;;;;5073534;28;20804;-56
2022/05/19 07:08:47;;;;;;;3.70;3.40;;;21.40;99.60;;;;;;5073655;28;20468;-55
2022/05/19 07:11:25;;;;;;;4.10;3.80;;;21.50;99.00;;;;;;5073372;28;20835;-56
2022/05/19 07:13:54;;;;;;;4.17;3.70;;;21.60;99.60;;;;;;5073860;28;20478;-56
2022/05/19 07:16:21;;;;;;;4.77;4.13;;;21.70;98.10;;;;;;5073667;28;20450;-56
2022/05/19 07:18:49;;;;;;;3.53;3.23;;;21.70;98.00;;;;;;5073558;28;20547;-56
2022/05/19 07:21:18;;;;;;;7.80;3.20;;;21.90;98.20;;;;;;5073693;28;20445;-56
2022/05/19 07:23:47;;;;;;;4.00;3.70;;;22.40;98.00;;;;;;5073663;28;20539;-57
2022/05/19 07:26:14;;;;;;;9.33;3.70;;;23.20;97.40;;;;;;5073286;28;20951;-57
2022/05/19 07:28:41;;;;;;;4.37;3.73;;;23.80;96.30;;;;;;5073189;28;20464;-57
2022/05/19 07:31:09;;;;;;;5.00;3.67;;;24.40;95.30;;;;;;5073408;28;20483;-57
2022/05/19 07:33:37;;;;;;;4.03;3.63;;;25.00;94.30;;;;;;5072962;28;20446;-57
2022/05/19 07:36:08;;;;;;;5.60;4.20;;;25.70;94.00;;;;;;5073157;28;20472;-57
2022/05/19 07:38:37;;;;;;;3.47;3.17;;;26.40;92.40;;;;;;5072806;28;20464;-57
2022/05/19 07:41:04;;;;;;;3.13;2.93;;;26.60;91.40;;;;;;5072546;28;20479;-57
2022/05/19 07:43:38;;;;;;;5.03;3.70;;;26.70;91.30;;;;;;5073200;28;20464;-57
2022/05/19 07:46:06;;;;;;;3.40;3.00;;;26.60;90.20;;;;;;5073225;28;20433;-57
2022/05/19 07:48:33;;;;;;;4.73;3.03;;;26.50;90.40;;;;;;5073917;28;20816;-57
2022/05/19 07:51:02;;;;;;;3.60;3.30;;;27.40;90.00;;;;;;5073245;28;20950;-57
2022/05/19 07:53:29;;;;;;;5.03;3.63;;;26.70;89.10;;;;;;5076087;28;20494;-57
2022/05/19 07:55:58;;;;;;;4.40;3.57;;;27.10;89.00;;;;;;5077489;28;20448;-57
2022/05/19 07:58:25;;;;;;;5.70;3.47;;;27.60;88.50;;;;;;5077091;28;20973;-57
2022/05/19 08:00:52;;;;;;;3.30;2.90;;;27.70;85.90;;;;;;5077251;28;20812;-57
2022/05/19 08:03:22;;;;;;;4.23;3.93;;;28.30;86.50;;;;;;5076896;28;20445;-57
2022/05/19 08:05:50;;;;;;;4.27;3.97;;;28.90;87.80;;;;;;5077206;28;20452;-57
2022/05/19 08:08:17;;;;;;;5.23;3.60;;;28.50;83.50;;;;;;5077466;28;20464;-57
2022/05/19 08:10:44;;;;;;;3.37;3.03;;;28.60;83.80;;;;;;5077134;28;20452;-56
2022/05/19 08:15:58;;;;;;;3.57;3.27;;;29.10;82.00;;;;;;5077413;28;20412;-57
2022/05/19 08:18:26;;;;;;;4.30;3.90;;;29.20;82.90;;;;;;5076780;28;20452;-57
2022/05/19 08:20:57;;;;;;;6.50;3.50;;;29.60;83.20;;;;;;5077700;28;20841;-57
2022/05/19 08:23:27;;;;;;;4.07;3.67;;;30.00;78.00;;;;;;5076733;28;20428;-57
2022/05/19 08:25:55;;;;;;;4.30;3.60;;;29.60;80.50;;;;;;5076674;28;20487;-57
2022/05/19 08:28:29;;;;;;;3.50;3.20;;;29.50;81.00;;;;;;5076408;28;20464;-57
2022/05/19 08:30:57;;;;;;;4.33;3.93;;;;;;;;;;5076584;28;20519;-57
2022/05/19 08:33:24;;;;;;;4.23;3.93;;;29.90;76.70;;;;;;5076433;28;20491;-56
2022/05/19 08:35:52;;;;;;;4.53;3.60;;;30.10;76.50;;;;;;5076707;28;20452;-57
2022/05/19 08:38:22;;;;;;;4.73;3.00;;;29.90;76.20;;;;;;5076856;28;20466;-56
2022/05/19 08:40:51;;;;;;;6.17;3.30;;;29.80;77.90;;;;;;5076044;28;20817;-56
2022/05/19 08:43:22;;;;;;;4.10;3.70;;;30.30;76.50;;;;;;5076504;28;20457;-56
2022/05/19 08:45:55;;;;;;;6.20;3.70;;;30.90;74.60;;;;;;5076357;28;20910;-55
2022/05/19 08:48:25;;;;;;;3.80;3.40;;;30.80;77.20;;;;;;5076628;28;20525;-57
2022/05/19 08:50:56;;;;;;;4.10;3.63;;;31.20;75.50;;;;;;5076825;28;20804;-57
2022/05/19 08:53:25;;;;;;;3.70;3.40;;;32.00;73.50;;;;;;5076175;28;20480;-57
2022/05/19 08:55:55;;;;;;;3.83;3.47;;;32.20;73.50;;;;;;5076006;28;20501;-57
2022/05/19 08:58:41;;;;;;;3.80;3.37;;;31.90;70.20;;;;;;5077184;28;20467;-57
2022/05/19 09:01:17;;;;;;;5.00;3.40;;;32.60;69.00;;;;;;5076190;28;20467;-57
2022/05/19 09:03:53;;;;;;;3.60;3.30;;;32.50;69.90;;;;;;5075334;28;20447;-56
2022/05/19 09:06:33;;;;;;;3.43;3.13;;;32.50;71.30;;;;;;5075785;28;20929;-56
2022/05/19 09:09:12;;;;;;;4.57;4.17;;;31.60;70.30;;;;;;5075930;28;20460;-56
2022/05/19 09:11:46;;;;;;;6.37;3.60;;;31.70;69.50;;;;;;5076519;28;20432;-57
2022/05/19 09:14:20;;;;;;;4.47;3.40;;;32.10;71.00;;;;;;5075978;28;20444;-57
2022/05/19 09:16:50;;;;;;;3.43;3.23;;;32.50;66.90;;;;;;5076469;28;20440;-57
2022/05/19 09:19:20;;;;;;;3.83;3.33;;;32.40;67.60;;;;;;5075433;28;20468;-61
2022/05/19 09:21:58;;;;;;;6.03;3.60;;;32.70;68.80;;;;;;5075496;28;20464;-57
2022/05/19 09:24:25;;;;;;;3.30;3.00;;;32.90;67.00;;;;;;5076273;28;20554;-57
2022/05/19 09:26:54;;;;;;;3.73;3.43;;;33.20;67.40;;;;;;5075742;28;20505;-57
2022/05/19 09:29:24;;;;;;;4.60;3.20;;;33.80;66.00;;;;;;5075504;28;20470;-57
2022/05/19 09:31:56;;;;;;;5.13;3.50;;;33.80;64.10;;;;;;5075566;28;20436;-56
2022/05/19 09:34:27;;;;;;;4.13;3.53;;;34.00;63.40;;;;;;5075496;28;20447;-57
2022/05/19 09:37:06;;;;;;;4.13;3.23;;;34.30;63.00;;;;;;5075655;28;20520;-57
2022/05/19 09:39:35;;;;;;;3.27;2.90;;;33.60;64.60;;;;;;5075582;28;20854;-57
2022/05/19 09:42:09;;;;;;;4.37;3.40;;;34.00;62.50;;;;;;5075155;28;20492;-57
2022/05/19 09:44:43;;;;;;;3.73;3.40;;;34.10;62.70;;;;;;5075686;28;20454;-56
2022/05/19 09:47:24;;;;;;;4.30;3.30;;;33.90;63.50;;;;;;5075052;28;20432;-57
2022/05/19 09:49:56;;;;;;;4.37;3.97;;;34.20;62.60;;;;;;5075040;28;20555;-58
2022/05/19 09:52:27;;;;;;;6.93;4.20;;;33.90;62.30;;;;;;5074966;28;20789;-57
2022/05/19 09:54:57;;;;;;;4.77;4.13;;;34.30;62.70;;;;;;5075173;28;20459;-57
2022/05/19 09:57:37;;;;;;;4.33;3.10;;;34.40;60.90;;;;;;5075213;28;20447;-57
2022/05/19 10:00:10;;;;;;;4.57;3.57;;;34.20;61.00;;;;;;5074663;28;20963;-57
2022/05/19 10:02:44;;;;;;;4.90;4.20;;;34.20;64.40;;;;;;5074994;28;20548;-57
2022/05/19 10:05:22;;;;;;;8.00;4.37;;;34.40;61.00;;;;;;5074710;28;20428;-57
2022/05/19 10:07:52;;;;;;;3.63;3.20;;;34.40;62.60;;;;;;5074837;28;20428;-56
2022/05/19 10:10:24;;;;;;;3.90;3.60;;;34.50;61.10;;;;;;5074754;28;20479;-57
2022/05/19 10:12:56;;;;;;;4.43;3.90;;;33.50;61.00;;;;;;5075003;28;20496;-56
2022/05/19 10:15:30;;;;;;;5.63;4.90;;;34.20;61.30;;;;;;5073713;28;20439;-57
2022/05/19 10:18:12;;;;;;;3.23;3.00;;;34.40;60.70;;;;;;5074720;28;20783;-57
2022/05/19 10:20:50;;;;;;;4.17;3.40;;;33.50;61.50;;;;;;5074321;28;20521;-57
2022/05/19 10:23:42;;;;;;;5.93;3.70;;;33.60;61.10;;;;;;5074730;28;20863;-57
2022/05/19 10:26:27;;;;;;;4.40;4.00;;;33.80;63.30;;;;;;5074276;28;20450;-57
2022/05/19 10:32:07;;;;;;;5.33;3.60;;;34.50;62.70;;;;;;5074319;28;20401;-57
2022/05/19 10:34:51;;;;;;;5.20;3.70;;;34.20;62.10;;;;;;5074125;28;20432;-57
2022/05/19 10:37:28;;;;;;;4.00;3.60;;;34.40;60.60;;;;;;5074386;28;20428;-57
2022/05/19 10:40:17;;;;;;;4.90;3.70;;;34.50;59.70;;;;;;5074425;28;20554;-57
2022/05/19 10:42:59;;;;;;;9.00;4.70;;;34.20;59.80;;;;;;5073922;28;20493;-57
2022/05/19 10:45:28;;;;;;;4.90;4.10;;;33.60;59.70;;;;;;5074244;28;20432;-57
2022/05/19 10:48:27;;;;;;;4.93;4.10;;;33.70;61.40;;;;;;5073916;28;20517;-57
2022/05/19 10:51:01;;;;;;;5.03;3.50;;;33.20;61.30;;;;;;5074102;28;20478;-57
2022/05/19 10:53:50;;;;;;;4.33;4.03;;;33.80;63.00;;;;;;5073541;28;20947;-57
2022/05/19 10:56:38;;;;;;;3.83;3.33;;;34.30;58.90;;;;;;5071648;28;20443;-57
2022/05/19 10:59:23;;;;;;;4.83;4.03;;;34.20;60.30;;;;;;5073481;28;20467;-57
2022/05/19 11:02:03;;;;;;;7.60;4.00;;;34.50;59.50;;;;;;5073677;28;20464;-57
2022/05/19 11:04:47;;;;;;;4.73;4.10;;;34.70;58.50;;;;;;5073547;28;20431;-57
2022/05/19 11:07:39;;;;;;;6.60;4.50;;;34.90;59.00;;;;;;5073737;28;20432;-57
2022/05/19 11:10:18;;;;;;;4.43;4.03;;;35.20;59.10;;;;;;5073695;28;20548;-57
2022/05/19 11:12:50;;;;;;;4.23;3.80;;;35.30;59.20;;;;;;5073861;28;20462;-57
2022/05/19 11:15:25;;;;;;;4.60;3.70;;;35.40;59.10;;;;;;5073599;28;20424;-57
2022/05/19 11:18:00;;;;;;;5.00;3.40;;;35.50;59.70;;;;;;5073786;28;20428;-57
2022/05/19 11:20:32;;;;;;;6.67;4.40;;;35.60;58.50;;;;;;5074069;28;20442;-57
2022/05/19 11:23:08;;;;;;;5.00;4.60;;;35.00;57.20;;;;;;5073233;28;21072;-57
2022/05/19 11:28:36;;;;;;;7.23;3.90;;;34.10;58.50;;;;;;5073469;28;20442;-57
2022/05/19 11:31:11;;;;;;;4.83;4.43;;;35.10;59.60;;;;;;5073294;28;20436;-57
2022/05/19 11:33:41;;;;;;;6.10;4.23;;;35.20;59.40;;;;;;5073567;28;20427;-58
2022/05/19 11:36:17;;;;;;;11.00;4.87;;;34.90;58.10;;;;;;5073418;28;20479;-58
2022/05/19 11:38:52;;;;;;;5.00;4.10;;;35.10;57.60;;;;;;5073173;28;20472;-58
2022/05/19 11:41:22;;;;;;;5.80;3.90;;;35.20;57.50;;;;;;5072923;28;20566;-58
2022/05/19 11:44:00;;;;;;;4.70;3.90;;;34.80;57.90;;;;;;5073052;28;20488;-58
2022/05/19 11:46:33;;;;;;;5.00;4.10;;;34.70;57.90;;;;;;5073251;28;20513;-56
2022/05/19 11:57:37;;;;;;;4.13;3.83;;;35.50;56.60;;;;;;5073495;28;20411;-58
2022/05/19 12:00:07;;;;;;;4.27;3.97;;;35.10;58.00;;;;;;5073385;28;20489;-58
2022/05/19 12:02:39;;;;;;;4.50;4.17;;;34.80;57.60;;;;;;5072937;28;20487;-57
2022/05/19 12:05:13;;;;;;;7.00;4.77;;;34.60;57.50;;;;;;5073239;28;20546;-58
2022/05/19 12:07:49;;;;;;;5.03;4.63;;;34.60;58.20;;;;;;5073008;28;20523;-56
2022/05/19 12:10:23;;;;;;;5.10;4.03;;;34.80;58.70;;;;;;5072900;28;20463;-58
2022/05/19 12:12:59;;;;;;;5.50;3.87;;;35.10;58.60;;;;;;5072941;28;20977;-58
2022/05/19 12:15:32;;;;;;;5.43;4.03;;;35.00;58.00;;;;;;5073315;28;20439;-57
2022/05/19 12:18:02;;;;;;;8.23;4.50;;;35.20;58.10;;;;;;5073108;28;20497;-57
2022/05/19 12:20:49;;;;;;;7.17;4.70;;;35.00;58.50;;;;;;5072813;28;20880;-56
2022/05/19 12:23:24;;;;;;;5.63;4.10;;;34.60;58.20;;;;;;5072777;28;20473;-56
2022/05/19 12:25:56;;;;;;;5.80;5.20;;;33.20;58.90;;;;;;5073230;28;20436;-57
2022/05/19 12:28:40;;;;;;;5.53;4.70;;;;;;;;;;5072848;28;20966;-57
2022/05/19 12:34:06;;;;;;;4.97;4.57;;;32.20;62.40;;;;;;5073136;28;20483;-57
2022/05/19 12:36:42;;;;;;;11.13;4.53;;;32.30;62.60;;;;;;5073273;28;20523;-57
2022/05/19 12:39:26;;;;;;;6.60;4.60;;;33.10;60.60;;;;;;5074901;28;20470;-57
2022/05/19 12:41:57;;;;;;;5.00;4.37;;;33.50;59.50;;;;;;5073905;28;20486;-57
2022/05/19 12:44:39;;;;;;;6.73;4.87;;;34.10;59.50;;;;;;5076612;28;20483;-57
2022/05/19 12:47:12;;;;;;;5.33;4.83;;;34.30;58.90;;;;;;5076632;28;20439;-57
2022/05/19 12:50:00;;;;;;;5.60;5.10;;;34.30;58.20;;;;;;5076719;28;20919;-57
2022/05/19 12:53:05;;;;;;;6.07;4.40;;;33.80;59.00;;;;;;5076109;28;20534;-57
2022/05/19 12:55:50;;;;;;;5.17;4.10;;;33.80;59.30;;;;;;5076305;28;20493;-56
2022/05/19 12:58:58;;;;;;;5.90;4.93;;;33.90;58.60;;;;;;5076257;28;20476;-57
2022/05/19 13:01:30;;;;;;;5.30;4.90;;;33.70;59.60;;;;;;5070957;28;20445;-57
2022/05/19 13:04:12;;;;;;;4.67;4.37;;;34.00;60.00;;;;;;5075911;28;20452;-57
2022/05/19 13:06:44;;;;;;;5.77;4.90;;;33.70;60.60;;;;;;5075936;28;20442;-57
2022/05/19 13:09:11;;;;;;;4.40;4.10;;;33.30;59.40;;;;;;5075790;28;20472;-57
2022/05/19 13:11:46;;;;;;;5.10;4.57;;;33.30;60.40;;;;;;5075711;28;20942;-57
2022/05/19 13:14:16;;;;;;;4.90;4.50;;;33.00;60.00;;;;;;5075801;28;20483;-57
2022/05/19 13:16:51;;;;;;;5.00;4.60;;;33.40;59.80;;;;;;5075493;28;20907;-57
2022/05/19 13:19:22;;;;;;;7.97;5.07;;;33.80;58.90;;;;;;5075653;28;20474;-57
2022/05/19 13:21:56;;;;;;;6.27;4.90;;;34.00;59.80;;;;;;5075858;28;20977;-57
2022/05/19 13:24:25;;;;;;;4.90;4.50;;;33.80;59.80;;;;;;5075805;28;20467;-57
2022/05/19 13:30:20;;;;;;;7.50;4.90;;;33.50;59.40;;;;;;5076336;28;20452;-57
2022/05/19 13:32:33;;;;;;;4.47;4.17;;;33.50;62.40;;;;;;5075649;28;20478;-57
2022/05/19 13:35:03;;;;;;;7.77;5.33;;;33.20;61.10;;;;;;5075426;28;20512;-57
2022/05/19 13:37:31;;;;;;;7.20;4.70;;;33.00;61.30;;;;;;5075594;28;20837;-57